createdAt,value
2023-12-05T00:00:16.632Z,42.00
2023-12-05T00:02:45.802Z,42.90
2023-12-05T00:05:14.291Z,32.20
2023-12-05T00:07:44.515Z,22.00
2023-12-05T00:10:13.036Z,15.90
2023-12-05T00:12:41.654Z,12.20
2023-12-05T00:15:10.328Z,15.00
2023-12-05T00:17:38.503Z,12.00
2023-12-05T00:20:07.673Z,10.30
2023-12-05T00:22:37.714Z,10.90
2023-12-05T00:25:06.479Z,9.20
2023-12-05T00:27:35.449Z,9.50
2023-12-05T00:30:04.665Z,10.70
2023-12-05T00:32:33.151Z,10.00
2023-12-05T00:35:01.451Z,11.40
2023-12-05T00:37:30.013Z,10.60
2023-12-05T00:39:58.224Z,12.60
2023-12-05T00:42:26.715Z,12.20
2023-12-05T00:44:54.939Z,11.80
2023-12-05T00:47:23.230Z,12.20
2023-12-05T00:49:51.424Z,11.80
2023-12-05T00:52:19.865Z,12.10
2023-12-05T00:54:48.093Z,11.90
2023-12-05T00:57:16.281Z,11.50
2023-12-05T00:59:44.572Z,11.20
2023-12-05T01:02:12.862Z,11.40
2023-12-05T01:04:41.238Z,11.90
2023-12-05T01:07:13.945Z,12.10
2023-12-05T01:09:42.222Z,12.60
2023-12-05T01:12:12.003Z,11.70
2023-12-05T01:14:40.380Z,11.30
2023-12-05T01:17:08.909Z,11.20
2023-12-05T01:19:39.107Z,12.80
2023-12-05T01:22:07.610Z,12.80
2023-12-05T01:24:35.945Z,12.60
2023-12-05T01:27:05.086Z,11.60
2023-12-05T01:29:33.537Z,12.20
2023-12-05T01:32:01.693Z,12.00
2023-12-05T01:34:29.982Z,11.30
2023-12-05T01:36:58.324Z,10.90
2023-12-05T01:39:26.603Z,13.00
2023-12-05T01:41:55.088Z,11.10
2023-12-05T01:44:24.013Z,12.30
2023-12-05T01:46:52.329Z,11.80
2023-12-05T01:49:28.753Z,12.50
2023-12-05T01:51:58.512Z,12.80
2023-12-05T01:54:28.952Z,12.90
2023-12-05T01:56:57.607Z,12.90
2023-12-05T01:59:26.025Z,15.80
2023-12-05T02:01:54.538Z,15.20
2023-12-05T02:04:23.157Z,19.10
2023-12-05T02:06:51.525Z,20.60
2023-12-05T02:09:20.895Z,19.20
2023-12-05T02:11:49.321Z,17.50
2023-12-05T02:14:17.701Z,17.50
2023-12-05T02:16:53.122Z,14.80
2023-12-05T02:20:08.415Z,14.00
2023-12-05T02:22:45.022Z,13.50
2023-12-05T02:25:44.494Z,13.30
2023-12-05T02:28:12.899Z,13.80
2023-12-05T02:30:41.269Z,12.00
2023-12-05T02:33:09.600Z,13.60
2023-12-05T02:35:38.577Z,13.00
2023-12-05T02:38:10.447Z,13.90
2023-12-05T02:40:53.736Z,12.10
2023-12-05T02:43:31.247Z,12.60
2023-12-05T02:46:08.653Z,12.40
2023-12-05T02:48:38.912Z,12.30
2023-12-05T02:51:07.530Z,12.20
2023-12-05T02:53:35.965Z,12.70
2023-12-05T02:56:04.979Z,12.40
2023-12-05T02:58:33.212Z,13.20
2023-12-05T03:01:03.265Z,15.00
2023-12-05T03:03:31.662Z,12.70
2023-12-05T03:06:00.093Z,12.80
2023-12-05T03:08:28.515Z,13.40
2023-12-05T03:11:03.398Z,13.60
2023-12-05T03:13:35.990Z,13.10
2023-12-05T03:16:04.883Z,15.40
2023-12-05T03:18:33.484Z,14.10
2023-12-05T03:21:01.710Z,13.10
2023-12-05T03:23:30.407Z,12.50
2023-12-05T03:25:58.791Z,14.10
2023-12-05T03:28:27.100Z,13.90
2023-12-05T03:30:55.422Z,13.10
2023-12-05T03:33:23.655Z,13.20
2023-12-05T03:35:51.973Z,14.70
2023-12-05T03:38:20.351Z,15.00
2023-12-05T03:40:48.656Z,16.00
2023-12-05T03:43:16.957Z,15.70
2023-12-05T03:45:45.317Z,20.40
2023-12-05T03:48:13.625Z,22.00
2023-12-05T03:50:42.128Z,15.20
2023-12-05T03:53:10.347Z,14.70
2023-12-05T03:55:38.633Z,14.60
2023-12-05T03:58:06.830Z,15.10
2023-12-05T04:00:35.096Z,15.90
2023-12-05T04:03:03.403Z,16.20
2023-12-05T04:05:31.914Z,13.70
2023-12-05T04:08:00.267Z,13.70
2023-12-05T04:10:28.433Z,13.40
2023-12-05T04:12:57.658Z,14.80
2023-12-05T04:15:26.024Z,16.10
2023-12-05T04:17:54.328Z,13.80
2023-12-05T04:20:23.113Z,15.50
2023-12-05T04:22:51.471Z,14.60
2023-12-05T04:25:19.934Z,16.40
2023-12-05T04:27:48.284Z,16.90
2023-12-05T04:30:17.197Z,14.20
2023-12-05T04:32:46.249Z,15.70
2023-12-05T04:35:16.530Z,16.40
2023-12-05T04:37:44.842Z,16.00
2023-12-05T04:40:13.509Z,18.80
2023-12-05T04:42:41.753Z,18.60
2023-12-05T04:45:10.257Z,18.90
2023-12-05T04:47:38.526Z,19.30
2023-12-05T04:50:07.375Z,16.40
2023-12-05T04:52:35.694Z,16.80
2023-12-05T04:55:04.781Z,15.80
2023-12-05T04:57:32.965Z,18.50
2023-12-05T05:00:01.465Z,17.10
2023-12-05T05:02:29.684Z,15.00
2023-12-05T05:04:58.086Z,16.40
2023-12-05T05:07:26.461Z,16.30
2023-12-05T05:09:54.762Z,15.80
2023-12-05T05:12:24.019Z,13.40
2023-12-05T05:14:52.304Z,16.50
2023-12-05T05:17:20.612Z,18.10
2023-12-05T05:19:49.328Z,17.20
2023-12-05T05:22:17.956Z,17.10
2023-12-05T05:24:46.187Z,17.30
2023-12-05T05:27:15.397Z,16.20
2023-12-05T05:29:43.631Z,16.50
2023-12-05T05:32:12.041Z,17.20
2023-12-05T05:34:40.465Z,16.90
2023-12-05T05:37:08.724Z,19.10
2023-12-05T05:39:37.130Z,16.70
2023-12-05T05:42:05.882Z,16.70
2023-12-05T05:44:34.656Z,17.00
2023-12-05T05:47:02.916Z,15.50
2023-12-05T05:49:31.379Z,17.40
2023-12-05T05:51:59.924Z,18.50
2023-12-05T05:54:28.233Z,18.70
2023-12-05T05:56:56.569Z,15.60
2023-12-05T05:59:24.787Z,18.40
2023-12-05T06:01:53.122Z,17.90
2023-12-05T06:04:21.785Z,18.10
2023-12-05T06:06:50.555Z,15.50
2023-12-05T06:09:18.817Z,15.80
2023-12-05T06:11:47.467Z,17.80
2023-12-05T06:14:15.953Z,15.90
2023-12-05T06:16:44.404Z,16.00
2023-12-05T06:19:12.986Z,15.30
2023-12-05T06:21:41.504Z,16.10
2023-12-05T06:24:11.255Z,18.70
2023-12-05T06:26:39.965Z,17.20
2023-12-05T06:29:08.294Z,17.40
2023-12-05T06:31:37.266Z,15.50
2023-12-05T06:34:05.568Z,16.60
2023-12-05T06:36:34.123Z,16.10
2023-12-05T06:39:02.693Z,15.80
2023-12-05T06:41:30.897Z,15.30
2023-12-05T06:43:59.225Z,17.60
2023-12-05T06:46:27.774Z,18.90
2023-12-05T06:48:56.270Z,18.30
2023-12-05T06:51:24.638Z,18.80
2023-12-05T06:53:52.911Z,17.80
2023-12-05T06:56:21.826Z,15.90
2023-12-05T06:58:50.326Z,16.40
2023-12-05T07:01:19.517Z,19.30
2023-12-05T07:03:53.684Z,17.60
2023-12-05T07:06:25.751Z,17.90
2023-12-05T07:08:54.346Z,18.40
2023-12-05T07:11:22.840Z,18.70
2023-12-05T07:13:51.117Z,18.80
2023-12-05T07:16:19.363Z,18.00
2023-12-05T07:18:47.989Z,19.40
2023-12-05T07:21:16.520Z,18.40
2023-12-05T07:23:52.206Z,17.40
2023-12-05T07:26:24.328Z,16.40
2023-12-05T07:28:52.649Z,45.70
2023-12-05T07:31:21.758Z,19.80
2023-12-05T07:33:50.474Z,19.80
2023-12-05T07:36:19.096Z,15.90
2023-12-05T07:38:47.553Z,13.50
2023-12-05T07:41:22.669Z,12.70
2023-12-05T07:43:51.029Z,15.10
2023-12-05T07:46:19.752Z,13.00
2023-12-05T07:48:48.995Z,15.00
2023-12-05T07:51:19.596Z,12.30
2023-12-05T07:53:50.232Z,12.80
2023-12-05T07:56:19.331Z,12.50
2023-12-05T07:58:47.650Z,12.10
2023-12-05T08:01:15.903Z,10.60
2023-12-05T08:03:44.493Z,11.60
2023-12-05T08:06:13.524Z,10.50
2023-12-05T08:08:41.935Z,12.50
2023-12-05T08:11:13.005Z,11.20
2023-12-05T08:13:42.310Z,12.00
2023-12-05T08:16:11.095Z,10.30
2023-12-05T08:18:39.594Z,10.20
2023-12-05T08:21:08.375Z,10.40
2023-12-05T08:23:36.764Z,10.00
2023-12-05T08:26:05.985Z,10.80
2023-12-05T08:28:35.789Z,8.90
2023-12-05T08:31:04.645Z,10.40
2023-12-05T08:33:33.205Z,9.20
2023-12-05T08:36:02.840Z,10.00
2023-12-05T08:38:31.252Z,9.50
2023-12-05T08:40:59.599Z,10.30
2023-12-05T08:43:28.097Z,10.90
2023-12-05T08:45:56.289Z,9.70
2023-12-05T08:48:24.813Z,10.60
2023-12-05T08:50:53.378Z,10.60
2023-12-05T08:53:22.143Z,11.70
2023-12-05T08:55:50.684Z,11.00
2023-12-05T08:58:19.010Z,8.60
2023-12-05T09:00:47.469Z,9.60
2023-12-05T09:03:15.877Z,9.60
2023-12-05T09:05:44.265Z,7.90
2023-12-05T09:08:12.804Z,8.40
2023-12-05T09:10:41.125Z,9.20
2023-12-05T09:13:09.635Z,10.10
2023-12-05T09:15:38.983Z,9.30
2023-12-05T09:18:07.343Z,11.10
2023-12-05T09:20:35.564Z,11.50
2023-12-05T09:23:04.100Z,10.80
2023-12-05T09:25:32.414Z,11.90
2023-12-05T09:28:00.942Z,11.70
2023-12-05T09:30:29.813Z,10.10
2023-12-05T09:32:58.368Z,9.90
2023-12-05T09:35:27.226Z,9.20
2023-12-05T09:37:55.524Z,9.40
2023-12-05T09:40:24.176Z,10.20
2023-12-05T09:42:53.624Z,9.20
2023-12-05T09:45:22.565Z,9.20
2023-12-05T09:47:51.825Z,10.50
2023-12-05T09:50:20.816Z,9.60
2023-12-05T09:52:49.442Z,10.40
2023-12-05T09:55:18.329Z,9.10
2023-12-05T09:57:47.267Z,8.00
2023-12-05T10:00:16.017Z,8.60
2023-12-05T10:02:47.556Z,7.90
2023-12-05T10:05:17.494Z,7.20
2023-12-05T10:07:47.750Z,8.80
2023-12-05T10:10:20.135Z,9.40
2023-12-05T10:12:49.670Z,9.80
2023-12-05T10:15:18.264Z,9.70
2023-12-05T10:17:48.494Z,11.90
2023-12-05T10:20:17.131Z,11.30
2023-12-05T10:22:45.720Z,9.50
2023-12-05T10:25:16.416Z,10.30
2023-12-05T10:27:44.707Z,10.20
2023-12-05T10:30:15.649Z,10.70
2023-12-05T10:32:46.096Z,10.30
2023-12-05T10:35:14.841Z,10.90
2023-12-05T10:37:43.860Z,10.60
2023-12-05T10:40:13.046Z,11.20
2023-12-05T10:42:41.458Z,9.80
2023-12-05T10:45:10.863Z,9.90
2023-12-05T10:47:39.171Z,9.90
2023-12-05T10:50:08.067Z,9.80
2023-12-05T10:52:36.659Z,8.40
2023-12-05T10:55:05.563Z,7.70
2023-12-05T10:57:37.771Z,8.30
2023-12-05T11:00:07.740Z,9.50
2023-12-05T11:02:37.703Z,10.00
2023-12-05T11:05:06.781Z,8.50
2023-12-05T11:07:35.075Z,11.00
2023-12-05T11:10:04.528Z,8.50
2023-12-05T11:12:34.220Z,8.50
2023-12-05T11:15:02.553Z,8.90
2023-12-05T11:17:40.071Z,8.10
2023-12-05T11:20:31.647Z,8.10
2023-12-05T11:23:07.520Z,7.70
2023-12-05T11:26:03.097Z,8.80
2023-12-05T11:28:48.883Z,10.20
2023-12-05T11:31:27.153Z,10.80
2023-12-05T11:34:04.198Z,10.80
2023-12-05T11:37:10.625Z,12.10
2023-12-05T11:39:39.214Z,9.60
2023-12-05T11:42:11.708Z,10.00
2023-12-05T11:44:40.409Z,8.80
2023-12-05T11:47:15.049Z,8.40
2023-12-05T11:49:56.625Z,9.50
2023-12-05T11:52:39.119Z,8.60
2023-12-05T11:57:36.954Z,9.30
2023-12-05T12:00:06.091Z,8.00
2023-12-05T12:02:43.736Z,9.00
2023-12-05T12:05:13.841Z,8.50
2023-12-05T12:07:58.266Z,6.80
2023-12-05T12:10:29.848Z,7.90
2023-12-05T12:12:59.946Z,9.10
2023-12-05T12:15:37.991Z,8.80
2023-12-05T12:18:06.648Z,7.60
2023-12-05T12:20:35.151Z,7.30
2023-12-05T12:23:03.758Z,8.50
2023-12-05T12:25:32.471Z,7.20
2023-12-05T12:28:01.639Z,7.90
2023-12-05T12:30:35.689Z,9.30
2023-12-05T12:33:07.509Z,6.50
2023-12-05T12:35:36.423Z,6.70
2023-12-05T12:38:04.884Z,8.10
2023-12-05T12:40:35.305Z,8.70
2023-12-05T12:43:04.647Z,7.80
2023-12-05T12:45:33.139Z,7.00
2023-12-05T12:48:05.120Z,8.50
2023-12-05T12:50:33.596Z,7.50
2023-12-05T12:53:02.143Z,7.30
2023-12-05T12:55:30.466Z,7.50
2023-12-05T12:58:02.952Z,8.60
2023-12-05T13:00:38.605Z,9.30
2023-12-05T13:03:07.710Z,8.40
2023-12-05T13:05:37.640Z,8.30
2023-12-05T13:08:06.428Z,8.80
2023-12-05T13:10:34.905Z,8.20
2023-12-05T13:13:04.026Z,8.50
2023-12-05T13:15:32.834Z,8.60
2023-12-05T13:18:05.783Z,8.00
2023-12-05T13:20:48.754Z,7.80
2023-12-05T13:23:18.604Z,9.20
2023-12-05T13:25:46.907Z,8.70
2023-12-05T13:28:15.168Z,9.00
2023-12-05T13:30:46.296Z,48.80
2023-12-05T13:33:16.703Z,35.10
2023-12-05T13:35:45.398Z,17.50
2023-12-05T13:38:13.935Z,11.20
2023-12-05T13:40:42.623Z,9.60
2023-12-05T13:43:10.956Z,9.80
2023-12-05T13:45:39.283Z,9.90
2023-12-05T13:48:07.956Z,9.80
2023-12-05T13:50:36.372Z,9.50
2023-12-05T13:53:04.919Z,10.00
2023-12-05T13:55:33.308Z,9.50
2023-12-05T13:58:01.644Z,9.60
2023-12-05T14:00:30.086Z,9.90
2023-12-05T14:02:58.690Z,11.20
2023-12-05T14:05:27.471Z,10.50
2023-12-05T14:07:56.151Z,8.90
2023-12-05T14:10:24.554Z,9.10
2023-12-05T14:12:53.664Z,8.00
2023-12-05T14:15:25.080Z,9.90
2023-12-05T14:17:54.753Z,19.30
2023-12-05T14:20:23.828Z,21.40
2023-12-05T14:22:52.168Z,20.20
2023-12-05T14:25:20.430Z,21.60
2023-12-05T14:27:48.849Z,23.40
2023-12-05T14:30:17.692Z,21.00
2023-12-05T14:32:46.026Z,21.80
2023-12-05T14:35:14.568Z,21.30
2023-12-05T14:37:42.876Z,22.20
2023-12-05T14:40:11.799Z,21.30
2023-12-05T14:42:40.156Z,24.10
2023-12-05T14:45:09.884Z,18.20
2023-12-05T14:47:38.574Z,17.50
2023-12-05T14:50:07.126Z,16.00
2023-12-05T14:52:36.485Z,17.50
2023-12-05T14:55:05.236Z,20.00
2023-12-05T14:57:33.678Z,19.10
2023-12-05T15:00:02.614Z,25.10
2023-12-05T15:02:31.198Z,26.50
2023-12-05T15:04:59.766Z,27.70
2023-12-05T15:07:28.386Z,30.80
2023-12-05T15:09:56.767Z,31.20
2023-12-05T15:12:26.081Z,29.10
2023-12-05T15:14:58.080Z,29.10
2023-12-05T15:17:26.413Z,27.60
2023-12-05T15:20:18.587Z,30.80
2023-12-05T15:22:44.186Z,30.20
2023-12-05T15:25:12.774Z,38.10
2023-12-05T15:27:41.291Z,38.00
2023-12-05T15:30:10.504Z,35.00
2023-12-05T15:32:39.386Z,29.20
2023-12-05T15:35:08.200Z,27.40
2023-12-05T15:37:36.905Z,26.80
2023-12-05T15:40:08.172Z,27.30
2023-12-05T15:42:36.475Z,32.50
2023-12-05T15:45:06.454Z,35.20
2023-12-05T15:47:35.702Z,34.20
2023-12-05T15:50:06.257Z,37.40
2023-12-05T15:52:37.365Z,33.30
2023-12-05T15:55:07.122Z,31.70
2023-12-05T15:57:36.292Z,31.00
2023-12-05T16:00:06.388Z,34.30
2023-12-05T16:02:42.983Z,30.40
2023-12-05T16:05:12.950Z,25.30
2023-12-05T16:07:41.905Z,27.60
2023-12-05T16:10:11.189Z,27.60
2023-12-05T16:12:39.741Z,32.80
2023-12-05T16:15:08.763Z,31.70
2023-12-05T16:17:37.406Z,28.30
2023-12-05T16:20:06.948Z,28.10
2023-12-05T16:22:35.403Z,28.10
2023-12-05T16:25:04.439Z,29.30
2023-12-05T16:27:36.249Z,31.90
2023-12-05T16:30:07.151Z,43.30
2023-12-05T16:32:36.109Z,58.10
2023-12-05T16:35:05.396Z,39.20
2023-12-05T16:37:33.839Z,43.90
2023-12-05T16:40:02.523Z,49.30
2023-12-05T16:42:31.080Z,50.70
2023-12-05T16:44:59.892Z,67.90
2023-12-05T16:47:28.503Z,78.20
2023-12-05T16:49:57.063Z,83.00
2023-12-05T16:52:25.665Z,75.00
2023-12-05T16:54:54.038Z,59.30
2023-12-05T16:57:25.412Z,58.50
2023-12-05T16:59:55.526Z,50.40
2023-12-05T17:02:23.894Z,48.30
2023-12-05T17:04:52.672Z,43.30
2023-12-05T17:07:21.526Z,38.20
2023-12-05T17:09:50.255Z,31.90
2023-12-05T17:12:18.869Z,30.50
2023-12-05T17:14:47.732Z,25.00
2023-12-05T17:17:16.500Z,22.70
2023-12-05T17:19:45.288Z,22.50
2023-12-05T17:22:13.773Z,20.50
2023-12-05T17:24:44.970Z,20.10
2023-12-05T17:27:14.567Z,22.70
2023-12-05T17:29:43.603Z,20.70
2023-12-05T17:32:13.406Z,20.70
2023-12-05T17:34:42.823Z,24.10
2023-12-05T17:37:11.805Z,22.30
2023-12-05T17:39:40.874Z,23.80
2023-12-05T17:42:09.369Z,24.50
2023-12-05T17:44:37.589Z,28.50
2023-12-05T17:47:05.946Z,26.80
2023-12-05T17:49:34.494Z,27.10
2023-12-05T17:52:03.399Z,30.70
2023-12-05T17:54:31.882Z,35.80
2023-12-05T17:57:00.618Z,37.70
2023-12-05T17:59:29.246Z,35.90
2023-12-05T18:01:58.690Z,33.00
2023-12-05T18:04:27.276Z,34.30
2023-12-05T18:07:49.727Z,43.40
2023-12-05T18:09:44.553Z,57.20
2023-12-05T18:12:12.890Z,69.30
2023-12-05T18:14:41.184Z,70.50
2023-12-05T18:17:09.617Z,59.20
2023-12-05T18:19:38.704Z,57.70
2023-12-05T18:22:07.339Z,54.60
2023-12-05T18:24:35.741Z,59.70
2023-12-05T18:27:04.701Z,64.50
2023-12-05T18:29:33.423Z,64.50
2023-12-05T18:32:02.010Z,61.50
2023-12-05T18:34:30.699Z,48.60
2023-12-05T18:36:59.315Z,39.90
2023-12-05T18:39:30.527Z,33.70
2023-12-05T18:41:59.397Z,29.50
2023-12-05T18:44:30.388Z,29.20
2023-12-05T18:46:58.874Z,26.80
2023-12-05T18:49:27.472Z,26.00
2023-12-05T18:51:56.732Z,24.50
2023-12-05T18:54:25.173Z,24.30
2023-12-05T18:56:53.463Z,25.90
2023-12-05T18:59:21.952Z,26.60
2023-12-05T19:01:51.097Z,26.60
2023-12-05T19:04:19.620Z,26.40
2023-12-05T19:06:49.725Z,30.40
2023-12-05T19:09:18.984Z,27.40
2023-12-05T19:11:47.360Z,25.80
2023-12-05T19:14:16.759Z,26.80
2023-12-05T19:16:45.403Z,25.60
2023-12-05T19:19:14.068Z,24.60
2023-12-05T19:21:47.288Z,24.40
2023-12-05T19:24:15.996Z,22.70
2023-12-05T19:26:44.734Z,21.50
2023-12-05T19:29:13.477Z,21.40
2023-12-05T19:31:42.240Z,20.70
2023-12-05T19:34:10.761Z,23.20
2023-12-05T19:36:39.360Z,30.70
2023-12-05T19:39:09.233Z,36.80
2023-12-05T19:41:37.806Z,35.00
2023-12-05T19:44:06.262Z,41.70
2023-12-05T19:46:34.743Z,30.10
2023-12-05T19:49:04.611Z,28.20
2023-12-05T19:51:33.540Z,27.50
2023-12-05T19:54:02.290Z,26.40
2023-12-05T19:56:30.856Z,24.70
2023-12-05T19:58:59.222Z,25.00
2023-12-05T20:01:27.882Z,24.10
2023-12-05T20:03:56.785Z,24.50
2023-12-05T20:06:25.364Z,23.90
2023-12-05T20:08:53.778Z,22.90
2023-12-05T20:11:22.589Z,25.10
2023-12-05T20:13:51.649Z,26.30
2023-12-05T20:16:19.939Z,30.80
2023-12-05T20:18:50.707Z,32.50
2023-12-05T20:21:19.128Z,27.30
2023-12-05T20:23:48.406Z,28.50
2023-12-05T20:26:16.607Z,23.10
2023-12-05T20:28:45.284Z,19.10
2023-12-05T20:31:14.015Z,23.90
2023-12-05T20:33:47.564Z,20.10
2023-12-05T20:36:16.698Z,23.00
2023-12-05T20:38:45.222Z,22.30
2023-12-05T20:41:13.522Z,22.40
2023-12-05T20:43:42.264Z,25.20
2023-12-05T20:46:10.514Z,26.00
2023-12-05T20:48:38.811Z,27.50
2023-12-05T20:51:07.295Z,28.40
2023-12-05T20:53:35.845Z,25.70
2023-12-05T20:56:04.941Z,28.00
2023-12-05T20:58:33.631Z,28.10
2023-12-05T21:01:03.111Z,26.60
2023-12-05T21:03:31.781Z,25.20
2023-12-05T21:06:00.058Z,24.60
2023-12-05T21:09:08.910Z,29.50
2023-12-05T21:11:17.968Z,27.80
2023-12-05T21:13:47.659Z,26.00
2023-12-05T21:16:16.460Z,26.10
2023-12-05T21:18:45.198Z,25.50
2023-12-05T21:21:13.876Z,25.30
2023-12-05T21:23:43.159Z,26.70
2023-12-05T21:26:11.523Z,25.60
2023-12-05T21:28:39.724Z,24.80
2023-12-05T21:31:08.175Z,24.70
2023-12-05T21:33:36.637Z,24.10
2023-12-05T21:36:05.587Z,23.80
2023-12-05T21:38:34.031Z,21.40
2023-12-05T21:41:02.448Z,23.70
2023-12-05T21:43:30.925Z,22.10
2023-12-05T21:45:59.354Z,23.90
2023-12-05T21:48:28.227Z,23.90
2023-12-05T21:50:56.605Z,23.50
2023-12-05T21:53:25.110Z,24.80
2023-12-05T21:55:53.377Z,22.90
2023-12-05T21:58:21.938Z,27.60
2023-12-05T22:00:50.488Z,24.60
2023-12-05T22:03:19.622Z,22.00
2023-12-05T22:05:47.954Z,22.40
2023-12-05T22:08:16.276Z,20.70
2023-12-05T22:10:44.498Z,19.60
2023-12-05T22:13:12.880Z,19.40
2023-12-05T22:15:41.393Z,18.40
2023-12-05T22:18:09.799Z,20.70
2023-12-05T22:20:38.854Z,17.80
2023-12-05T22:23:07.066Z,19.20
2023-12-05T22:25:35.577Z,19.00
2023-12-05T22:28:04.277Z,18.00
2023-12-05T22:30:32.989Z,22.70
2023-12-05T22:33:01.213Z,21.90
2023-12-05T22:35:29.928Z,23.00
2023-12-05T22:37:59.337Z,23.00
2023-12-05T22:40:28.584Z,22.10
2023-12-05T22:42:56.805Z,23.10
2023-12-05T22:45:25.219Z,24.50
2023-12-05T22:47:53.553Z,24.10
2023-12-05T22:50:21.885Z,21.40
2023-12-05T22:52:53.611Z,17.50
2023-12-05T22:55:22.084Z,16.30
2023-12-05T22:57:50.715Z,17.20
2023-12-05T23:00:27.065Z,16.30
2023-12-05T23:02:57.425Z,16.70
2023-12-05T23:05:26.228Z,17.40
2023-12-05T23:07:56.078Z,15.50
2023-12-05T23:10:24.785Z,16.80
2023-12-05T23:12:53.194Z,14.50
2023-12-05T23:15:21.677Z,16.50
2023-12-05T23:17:49.877Z,15.10
2023-12-05T23:20:18.834Z,14.90
2023-12-05T23:22:47.794Z,15.80
2023-12-05T23:25:17.097Z,17.30
2023-12-05T23:27:45.413Z,17.00
2023-12-05T23:30:14.309Z,16.60
2023-12-05T23:32:42.561Z,16.00
2023-12-05T23:35:10.802Z,15.40
2023-12-05T23:37:39.287Z,15.40
2023-12-05T23:40:08.067Z,13.90
2023-12-05T23:42:37.363Z,14.70
2023-12-05T23:45:06.088Z,12.90
2023-12-05T23:47:34.302Z,15.00
2023-12-05T23:50:02.513Z,14.90
2023-12-05T23:52:30.720Z,14.60
2023-12-05T23:54:59.129Z,15.10
2023-12-05T23:57:27.330Z,13.60
2023-12-05T23:59:56.158Z,13.70
